Time;durP1;ratioP1;P1;durP2;ratioP2;P2;SDS_P1;SDS_P2;PMS_P1;PMS_P2;Temp;Humidity;BMP_temperature;BMP_pressure;BME280_temperature;BME280_humidity;BME280_pressure;Samples;Min_cycle;Max_cycle;Signal;HPM_P1;HPM_P2
2022/06/04 00:01:39;;;;;;;;;;;;;;;;;;5073142;28;1343;-64
2022/06/04 00:04:04;;;;;;;;;;;;;;;;;;5091401;28;879;-64
2022/06/04 00:06:29;;;;;;;;;;;;;;;;;;5091786;28;947;-64
2022/06/04 00:08:54;;;;;;;;;;;;;;;;;;5091216;28;1093;-64
2022/06/04 00:16:47;;;;;;;;;;;;;;;;;;5091376;28;717;-63
2022/06/04 00:19:12;;;;;;;;;;;;;;;;;;5091496;28;934;-63
2022/06/04 00:21:38;;;;;;;;;;;;;;;;;;5091127;28;974;-64
2022/06/04 00:24:04;;;;;;;;;;;;;;;;;;5091305;28;987;-64
2022/06/04 00:26:29;;;;;;;;;;;;;;;;;;5090967;28;974;-64
2022/06/04 00:28:54;;;;;;;;;;;;;;;;;;5089479;28;1238;-64
2022/06/04 00:31:20;;;;;;;;;;;;;;;;;;5089577;28;1925;-64
2022/06/04 00:33:46;;;;;;;;;;;;;;;;;;5089112;28;1574;-64
2022/06/04 00:36:11;;;;;;;;;;;;;;;;;;5091195;28;963;-64
2022/06/04 00:38:37;;;;;;;;;;;;;;;;;;5090949;28;912;-64
2022/06/04 00:41:20;;;;;;;;;;;;;;;;;;5091034;28;887;-64
2022/06/04 00:43:55;;;;;;;;;;;;;;;;;;5090347;28;991;-64
2022/06/04 00:46:39;;;;;;;;;;;;;;;;;;5093641;28;1206;-64
2022/06/04 00:49:04;;;;;;;;;;;;;;;;;;5094935;28;837;-64
2022/06/04 00:51:29;;;;;;;;;;;;;;;;;;5094469;28;1914;-64
2022/06/04 00:53:56;;;;;;;;;;;;;;;;;;5093492;28;825;-64
2022/06/04 00:56:31;;;;;;;;;;;;;;;;;;5094784;28;786;-64
2022/06/04 00:59:15;;;;;;;;;;;;;;;;;;5094740;28;896;-64
2022/06/04 01:01:52;;;;;;;;;;;;;;;;;;5095272;28;920;-64
2022/06/04 01:07:24;;;;;;;;;;;;;;;;;;5095219;28;761;-63
2022/06/04 01:09:55;;;;;;;;;;;;;;;;;;5094453;28;912;-64
2022/06/04 01:12:23;;;;;;;;;;;;;;;;;;5095164;28;1905;-63
2022/06/04 01:14:51;;;;;;;;;;;;;;;;;;5095381;28;1053;-63
2022/06/04 01:17:29;;;;;;;;;;;;;;;;;;5095730;28;907;-64
2022/06/04 01:20:04;;;;;;;;;;;;;;;;;;5095108;28;927;-64
2022/06/04 01:22:49;;;;;;;;;;;;;;;;;;5095721;28;923;-64
2022/06/04 01:25:26;;;;;;;;;;;;;;;;;;5095555;28;758;-64
2022/06/04 01:27:53;;;;;;;;;;;;;;;;;;5094639;28;852;-64
2022/06/04 01:30:25;;;;;;;;;;;;;;;;;;5093756;28;1202;-64
2022/06/04 01:33:00;;;;;;;;;;;;;;;;;;5095126;28;1917;-64
2022/06/04 01:35:29;;;;;;;;;;;;;;;;;;5094610;28;828;-63
2022/06/04 01:38:01;;;;;;;;;;;;;;;;;;5093617;28;923;-63
2022/06/04 01:43:21;;;;;;;;;;;;;;;;;;5094614;28;623;-64
2022/06/04 01:45:49;;;;;;;;;;;;;;;;;;5093745;28;896;-64
2022/06/04 01:48:15;;;;;;;;;;;;;;;;;;5094337;28;892;-64
2022/06/04 01:50:45;;;;;;;;;;;;;;;;;;5093914;28;853;-64
2022/06/04 01:53:11;;;;;;;;;;;;;;;;;;5094050;28;1975;-64
2022/06/04 01:55:43;;;;;;;;;;;;;;;;;;5092107;28;947;-63
2022/06/04 01:58:11;;;;;;;;;;;;;;;;;;5093667;28;988;-63
2022/06/04 02:00:40;;;;;;;;;;;;;;;;;;5094623;28;848;-63
2022/06/04 02:03:14;;;;;;;;;;;;;;;;;;5093701;28;853;-64
2022/06/04 02:05:39;;;;;;;;;;;;;;;;;;5093387;28;971;-64
2022/06/04 02:08:06;;;;;;;;;;;;;;;;;;5093650;28;919;-64
2022/06/04 02:10:44;;;;;;;;;;;;;;;;;;5093221;28;872;-64
2022/06/04 02:13:11;;;;;;;;;;;;;;;;;;5091677;28;1902;-64
2022/06/04 02:15:44;;;;;;;;;;;;;;;;;;5091950;28;1363;-64
2022/06/04 02:18:10;;;;;;;;;;;;;;;;;;5092162;28;1262;-64
2022/06/04 02:20:35;;;;;;;;;;;;;;;;;;5092213;28;1135;-64
2022/06/04 02:23:01;;;;;;;;;;;;;;;;;;5091995;28;1214;-64
2022/06/04 02:25:28;;;;;;;;;;;;;;;;;;5093412;28;817;-64
2022/06/04 02:27:53;;;;;;;;;;;;;;;;;;5092646;28;766;-64
2022/06/04 02:30:20;;;;;;;;;;;;;;;;;;5092864;28;970;-64
2022/06/04 02:33:04;;;;;;;;;;;;;;;;;;5092371;28;1963;-63
2022/06/04 02:35:35;;;;;;;;;;;;;;;;;;5093347;28;829;-64
2022/06/04 02:38:05;;;;;;;;;;;;;;;;;;5092668;28;958;-64
2022/06/04 02:40:43;;;;;;;;;;;;;;;;;;5093442;28;1003;-64
2022/06/04 02:43:44;;;;;;;;;;;;;;;;;;5093427;28;813;-64
2022/06/04 02:46:15;;;;;;;;;;;;;;;;;;5050467;28;1422;-64
2022/06/04 02:48:45;;;;;;;;;;;;;;;;;;5084438;28;1429;-64
2022/06/04 02:51:14;;;;;;;;;;;;;;;;;;5093627;28;797;-64
2022/06/04 02:53:41;;;;;;;;;;;;;;;;;;5092066;28;1957;-64
2022/06/04 02:56:09;;;;;;;;;;;;;;;;;;5091747;28;1226;-64
2022/06/04 02:58:35;;;;;;;;;;;;;;;;;;5090815;28;1239;-64
2022/06/04 03:01:03;;;;;;;;;;;;;;;;;;5090393;28;1218;-63
2022/06/04 03:03:28;;;;;;;;;;;;;;;;;;5092734;28;836;-64
2022/06/04 03:05:56;;;;;;;;;;;;;;;;;;5090199;28;932;-64
2022/06/04 03:08:21;;;;;;;;;;;;;;;;;;5090586;28;1163;-64
2022/06/04 03:10:47;;;;;;;;;;;;;;;;;;5091657;28;924;-63
2022/06/04 03:13:12;;;;;;;;;;;;;;;;;;5092334;28;1969;-63
2022/06/04 03:15:37;;;;;;;;;;;;;;;;;;5092328;28;903;-64
2022/06/04 03:18:03;;;;;;;;;;;;;;;;;;5091530;28;990;-64
2022/06/04 03:20:28;;;;;;;;;;;;;;;;;;5092813;28;770;-64
2022/06/04 03:22:54;;;;;;;;;;;;;;;;;;5091763;28;813;-64
2022/06/04 03:25:19;;;;;;;;;;;;;;;;;;5090833;28;872;-64
2022/06/04 03:27:45;;;;;;;;;;;;;;;;;;5090622;28;1163;-64
2022/06/04 03:30:11;;;;;;;;;;;;;;;;;;5092526;28;916;-64
2022/06/04 03:32:37;;;;;;;;;;;;;;;;;;5090583;28;1914;-64
2022/06/04 03:35:02;;;;;;;;;;;;;;;;;;5091499;28;880;-64
2022/06/04 03:37:27;;;;;;;;;;;;;;;;;;5092035;28;904;-64
2022/06/04 03:39:53;;;;;;;;;;;;;;;;;;5090083;28;1046;-64
2022/06/04 03:42:18;;;;;;;;;;;;;;;;;;5092061;28;848;-64
2022/06/04 03:44:47;;;;;;;;;;;;;;;;;;5091714;28;1081;-64
2022/06/04 03:47:13;;;;;;;;;;;;;;;;;;5090087;28;931;-64
2022/06/04 03:49:38;;;;;;;;;;;;;;;;;;5091625;28;979;-64
2022/06/04 03:52:04;;;;;;;;;;;;;;;;;;5089683;28;1910;-64
2022/06/04 03:59:57;;;;;;;;;;;;;;;;;;5090903;28;686;-63
2022/06/04 04:02:22;;;;;;;;;;;;;;;;;;5091191;28;935;-64
2022/06/04 04:04:48;;;;;;;;;;;;;;;;;;5090736;28;836;-64
2022/06/04 04:07:14;;;;;;;;;;;;;;;;;;5089451;28;991;-64
2022/06/04 04:09:39;;;;;;;;;;;;;;;;;;5089993;28;1432;-63
2022/06/04 04:12:05;;;;;;;;;;;;;;;;;;5091330;28;1905;-64
2022/06/04 04:14:30;;;;;;;;;;;;;;;;;;5091033;28;1104;-64
2022/06/04 04:16:55;;;;;;;;;;;;;;;;;;5090305;28;1022;-64
2022/06/04 04:19:20;;;;;;;;;;;;;;;;;;5089439;28;778;-64
2022/06/04 04:21:46;;;;;;;;;;;;;;;;;;5089838;28;856;-63
2022/06/04 04:24:11;;;;;;;;;;;;;;;;;;5090010;28;750;-64
2022/06/04 04:26:38;;;;;;;;;;;;;;;;;;5090151;28;1245;-63
2022/06/04 04:29:03;;;;;;;;;;;;;;;;;;5089899;28;1335;-63
2022/06/04 04:31:29;;;;;;;;;;;;;;;;;;5091719;28;849;-63
2022/06/04 04:33:54;;;;;;;;;;;;;;;;;;5090898;28;1980;-62
2022/06/04 04:36:19;;;;;;;;;;;;;;;;;;5089878;28;1291;-63
2022/06/04 04:38:45;;;;;;;;;;;;;;;;;;5072904;28;873;-63
2022/06/04 04:41:11;;;;;;;;;;;;;;;;;;5091152;28;1250;-63
2022/06/04 04:43:37;;;;;;;;;;;;;;;;;;5091809;28;1245;-63
2022/06/04 04:46:03;;;;;;;;;;;;;;;;;;5089417;28;674;-63
2022/06/04 04:48:29;;;;;;;;;;;;;;;;;;5091089;28;891;-63
2022/06/04 04:50:54;;;;;;;;;;;;;;;;;;5089013;28;1472;-62
2022/06/04 04:53:19;;;;;;;;;;;;;;;;;;5089147;28;1910;-63
2022/06/04 04:55:45;;;;;;;;;;;;;;;;;;5090845;28;742;-63
2022/06/04 04:58:10;;;;;;;;;;;;;;;;;;5090543;28;943;-62
2022/06/04 05:00:35;;;;;;;;;;;;;;;;;;5090570;28;973;-62
2022/06/04 05:03:02;;;;;;;;;;;;;;;;;;5090549;28;990;-63
2022/06/04 05:05:27;;;;;;;;;;;;;;;;;;5091114;28;880;-62
2022/06/04 05:07:52;;;;;;;;;;;;;;;;;;5090571;28;904;-63
2022/06/04 05:10:17;;;;;;;;;;;;;;;;;;5090714;28;872;-62
2022/06/04 05:12:43;;;;;;;;;;;;;;;;;;5090837;28;1971;-62
2022/06/04 05:15:08;;;;;;;;;;;;;;;;;;5089640;28;947;-63
2022/06/04 05:17:34;;;;;;;;;;;;;;;;;;5090983;28;951;-62
2022/06/04 05:19:59;;;;;;;;;;;;;;;;;;5090724;28;970;-63
2022/06/04 05:22:24;;;;;;;;;;;;;;;;;;5090858;28;919;-63
2022/06/04 05:24:49;;;;;;;;;;;;;;;;;;5089938;28;1070;-63
2022/06/04 05:27:15;;;;;;;;;;;;;;;;;;5090073;28;868;-63
2022/06/04 05:29:40;;;;;;;;;;;;;;;;;;5090106;28;762;-63
2022/06/04 05:32:06;;;;;;;;;;;;;;;;;;5091786;28;1918;-63
2022/06/04 05:34:32;;;;;;;;;;;;;;;;;;5092143;28;1289;-63
2022/06/04 05:36:57;;;;;;;;;;;;;;;;;;5092235;28;892;-63
2022/06/04 05:39:23;;;;;;;;;;;;;;;;;;5093427;28;912;-63
2022/06/04 05:41:49;;;;;;;;;;;;;;;;;;5093600;28;944;-64
2022/06/04 05:44:14;;;;;;;;;;;;;;;;;;5093833;28;959;-63
2022/06/04 05:46:42;;;;;;;;;;;;;;;;;;5092376;28;1321;-63
2022/06/04 05:49:08;;;;;;;;;;;;;;;;;;5093669;28;853;-63
2022/06/04 05:51:33;;;;;;;;;;;;;;;;;;5093837;28;1902;-63
2022/06/04 05:54:00;;;;;;;;;;;;;;;;;;5093870;28;991;-63
2022/06/04 05:56:28;;;;;;;;;;;;;;;;;;5093644;28;979;-63
2022/06/04 05:58:55;;;;;;;;;;;;;;;;;;5093852;28;837;-62
2022/06/04 06:01:21;;;;;;;;;;;;;;;;;;5094182;28;948;-63
2022/06/04 06:03:47;;;;;;;;;;;;;;;;;;5094037;28;1157;-63
2022/06/04 06:06:13;;;;;;;;;;;;;;;;;;5094233;28;857;-63
2022/06/04 06:08:39;;;;;;;;;;;;;;;;;;5094657;28;947;-63
2022/06/04 06:11:05;;;;;;;;;;;;;;;;;;5093975;28;1016;-64
2022/06/04 06:13:31;;;;;;;;;;;;;;;;;;5092630;28;1906;-64
2022/06/04 06:15:56;;;;;;;;;;;;;;;;;;5092620;28;927;-64
2022/06/04 06:18:21;;;;;;;;;;;;;;;;;;5092790;28;897;-63
2022/06/04 06:20:46;;;;;;;;;;;;;;;;;;5093748;28;928;-64
2022/06/04 06:23:12;;;;;;;;;;;;;;;;;;5093576;28;886;-63
2022/06/04 06:25:38;;;;;;;;;;;;;;;;;;5092760;28;1475;-63
2022/06/04 06:28:03;;;;;;;;;;;;;;;;;;5093757;28;821;-63
2022/06/04 06:30:29;;;;;;;;;;;;;;;;;;5093936;28;1015;-63
2022/06/04 06:32:54;;;;;;;;;;;;;;;;;;5091686;28;1887;-64
2022/06/04 06:35:19;;;;;;;;;;;;;;;;;;5093520;28;1093;-63
2022/06/04 06:37:44;;;;;;;;;;;;;;;;;;5093420;28;794;-63
2022/06/04 06:40:10;;;;;;;;;;;;;;;;;;5091311;28;1151;-63
2022/06/04 06:42:35;;;;;;;;;;;;;;;;;;5093132;28;911;-63
2022/06/04 06:45:00;;;;;;;;;;;;;;;;;;5093474;28;864;-63
2022/06/04 06:47:26;;;;;;;;;;;;;;;;;;5092094;28;825;-63
2022/06/04 06:49:51;;;;;;;;;;;;;;;;;;5091208;28;1274;-63
2022/06/04 06:52:16;;;;;;;;;;;;;;;;;;5092919;28;1965;-63
2022/06/04 06:54:42;;;;;;;;;;;;;;;;;;5091751;28;1326;-63
2022/06/04 06:57:08;;;;;;;;;;;;;;;;;;5092915;28;990;-63
2022/06/04 06:59:34;;;;;;;;;;;;;;;;;;5092452;28;974;-63
2022/06/04 07:02:00;;;;;;;;;;;;;;;;;;5090734;28;1280;-63
2022/06/04 07:04:26;;;;;;;;;;;;;;;;;;5092601;28;908;-63
2022/06/04 07:06:53;;;;;;;;;;;;;;;;;;5091089;28;1199;-63
2022/06/04 07:09:19;;;;;;;;;;;;;;;;;;5092573;28;867;-63
2022/06/04 07:11:45;;;;;;;;;;;;;;;;;;5073276;28;1901;-63
2022/06/04 07:14:11;;;;;;;;;;;;;;;;;;5104748;28;1240;-63
2022/06/04 07:16:37;;;;;;;;;;;;;;;;;;5070760;28;1253;-63
2022/06/04 07:19:03;;;;;;;;;;;;;;;;;;5070369;28;2360;-63
2022/06/04 07:21:28;;;;;;;;;;;;;;;;;;5071001;28;1304;-63
2022/06/04 07:23:54;;;;;;;;;;;;;;;;;;5071195;28;1294;-63
2022/06/04 07:26:20;;;;;;;;;;;;;;;;;;5073256;28;833;-63
2022/06/04 07:28:46;;;;;;;;;;;;;;;;;;5073236;28;863;-63
2022/06/04 07:31:12;;;;;;;;;;;;;;;;;;5071947;28;857;-63
2022/06/04 07:33:38;;;;;;;;;;;;;;;;;;5072277;28;1914;-63
2022/06/04 07:36:03;;;;;;;;;;;;;;;;;;5071498;28;798;-63
2022/06/04 07:38:29;;;;;;;;;;;;;;;;;;5071498;28;963;-63
2022/06/04 07:40:54;;;;;;;;;;;;;;;;;;5071840;28;828;-63
2022/06/04 07:43:19;;;;;;;;;;;;;;;;;;5072174;28;849;-62
2022/06/04 07:45:44;;;;;;;;;;;;;;;;;;5070138;28;1297;-64
2022/06/04 07:48:10;;;;;;;;;;;;;;;;;;5072303;28;1015;-63
2022/06/04 07:50:37;;;;;;;;;;;;;;;;;;5072075;28;825;-63
2022/06/04 07:53:02;;;;;;;;;;;;;;;;;;5071737;28;1968;-63
2022/06/04 07:55:27;;;;;;;;;;;;;;;;;;5071158;28;868;-63
2022/06/04 07:57:53;;;;;;;;;;;;;;;;;;5072000;28;900;-63
2022/06/04 08:00:23;;;;;;;;;;;;;;;;;;5071317;28;951;-63
2022/06/04 08:02:48;;;;;;;;;;;;;;;;;;5070953;28;920;-64
2022/06/04 08:05:14;;;;;;;;;;;;;;;;;;5069909;28;1208;-64
2022/06/04 08:07:39;;;;;;;;;;;;;;;;;;5070924;28;893;-63
2022/06/04 08:10:05;;;;;;;;;;;;;;;;;;5068842;28;1336;-63
2022/06/04 08:12:33;;;;;;;;;;;;;;;;;;5102606;28;1963;-63
2022/06/04 08:15:00;;;;;;;;;;;;;;;;;;5101576;28;1016;-63
2022/06/04 08:17:26;;;;;;;;;;;;;;;;;;5071110;28;1027;-64
2022/06/04 08:19:52;;;;;;;;;;;;;;;;;;5068857;28;1202;-63
2022/06/04 08:22:17;;;;;;;;;;;;;;;;;;5071124;28;825;-63
2022/06/04 08:24:43;;;;;;;;;;;;;;;;;;5071171;28;810;-62
2022/06/04 08:27:08;;;;;;;;;;;;;;;;;;5071290;28;825;-63
2022/06/04 08:29:34;;;;;;;;;;;;;;;;;;5070851;28;1054;-62
2022/06/04 08:32:00;;;;;;;;;;;;;;;;;;5070645;28;1910;-63
2022/06/04 08:34:26;;;;;;;;;;;;;;;;;;5070722;28;939;-63
2022/06/04 08:36:51;;;;;;;;;;;;;;;;;;5070428;28;821;-63
2022/06/04 08:39:16;;;;;;;;;;;;;;;;;;5071532;28;1014;-64
2022/06/04 08:42:00;;;;;;;;;;;;;;;;;;5069078;28;1231;-63
2022/06/04 08:44:33;;;;;;;;;;;;;;;;;;5069426;28;1238;-63
2022/06/04 08:47:05;;;;;;;;;;;;;;;;;;5071024;28;821;-63
2022/06/04 08:49:37;;;;;;;;;;;;;;;;;;5069046;28;836;-63
2022/06/04 08:52:08;;;;;;;;;;;;;;;;;;5080712;28;1973;-63
2022/06/04 08:57:34;;;;;;;;;;;;;;;;;;5089883;28;752;-63
2022/06/04 09:00:03;;;;;;;;;;;;;;;;;;5090229;28;879;-63
2022/06/04 09:02:44;;;;;;;;;;;;;;;;;;5089465;28;1174;-64
2022/06/04 09:05:23;;;;;;;;;;;;;;;;;;5091700;28;899;-62
2022/06/04 09:07:52;;;;;;;;;;;;;;;;;;5094622;28;850;-62
2022/06/04 09:10:23;;;;;;;;;;;;;;;;;;5094751;28;1011;-63
2022/06/04 09:13:09;;;;;;;;;;;;;;;;;;5093914;28;1989;-63
2022/06/04 09:15:41;;;;;;;;;;;;;;;;;;5094683;28;1008;-63
2022/06/04 09:18:11;;;;;;;;;;;;;;;;;;5093544;28;1334;-64
2022/06/04 09:20:40;;;;;;;;;;;;;;;;;;5095211;28;836;-64
2022/06/04 09:23:11;;;;;;;;;;;;;;;;;;5094538;28;833;-64
2022/06/04 09:25:42;;;;;;;;;;;;;;;;;;5094082;28;832;-63
2022/06/04 09:28:16;;;;;;;;;;;;;;;;;;5094385;28;852;-63
2022/06/04 09:30:50;;;;;;;;;;;;;;;;;;5094420;28;808;-63
2022/06/04 09:33:28;;;;;;;;;;;;;;;;;;5093534;28;1910;-63
2022/06/04 09:35:54;;;;;;;;;;;;;;;;;;5094468;28;991;-64
2022/06/04 09:38:31;;;;;;;;;;;;;;;;;;5094353;28;888;-64
2022/06/04 09:40:58;;;;;;;;;;;;;;;;;;5093801;28;884;-64
2022/06/04 09:43:23;;;;;;;;;;;;;;;;;;5094593;28;1334;-64
2022/06/04 09:45:53;;;;;;;;;;;;;;;;;;5093834;28;904;-64
2022/06/04 09:48:38;;;;;;;;;;;;;;;;;;5091267;28;1660;-63
2022/06/04 09:51:06;;;;;;;;;;;;;;;;;;5091352;28;1268;-64
2022/06/04 09:53:41;;;;;;;;;;;;;;;;;;5094130;28;1979;-64
2022/06/04 09:56:06;;;;;;;;;;;;;;;;;;5093939;28;986;-64
2022/06/04 09:58:33;;;;;;;;;;;;;;;;;;5092438;28;935;-64
2022/06/04 10:00:59;;;;;;;;;;;;;;;;;;5093602;28;908;-64
2022/06/04 10:03:24;;;;;;;;;;;;;;;;;;5092540;28;1402;-64
2022/06/04 10:06:04;;;;;;;;;;;;;;;;;;5091841;28;1393;-62
2022/06/04 10:08:30;;;;;;;;;;;;;;;;;;5092591;28;876;-63
2022/06/04 10:11:07;;;;;;;;;;;;;;;;;;5093099;28;1007;-62
2022/06/04 10:13:42;;;;;;;;;;;;;;;;;;5091731;28;1905;-62
2022/06/04 10:16:20;;;;;;;;;;;;;;;;;;5093540;28;1189;-63
2022/06/04 10:19:11;;;;;;;;;;;;;;;;;;5092695;28;774;-63
2022/06/04 10:21:36;;;;;;;;;;;;;;;;;;5091352;28;1290;-63
2022/06/04 10:24:07;;;;;;;;;;;;;;;;;;5092808;28;829;-63
2022/06/04 10:26:39;;;;;;;;;;;;;;;;;;5093331;28;851;-64
2022/06/04 10:29:05;;;;;;;;;;;;;;;;;;5091630;28;1368;-64
2022/06/04 10:31:42;;;;;;;;;;;;;;;;;;5091788;28;1206;-64
2022/06/04 10:34:26;;;;;;;;;;;;;;;;;;5093456;28;1963;-64
2022/06/04 10:37:11;;;;;;;;;;;;;;;;;;5092998;28;769;-64
2022/06/04 10:39:39;;;;;;;;;;;;;;;;;;5091824;28;1224;-64
2022/06/04 10:42:13;;;;;;;;;;;;;;;;;;5092661;28;891;-64
2022/06/04 10:44:50;;;;;;;;;;;;;;;;;;5092106;28;920;-64
2022/06/04 10:47:16;;;;;;;;;;;;;;;;;;5093087;28;907;-64
2022/06/04 10:49:55;;;;;;;;;;;;;;;;;;5093587;28;1158;-64
2022/06/04 10:52:43;;;;;;;;;;;;;;;;;;5092974;28;1894;-64
2022/06/04 10:55:20;;;;;;;;;;;;;;;;;;5092370;28;817;-64
2022/06/04 10:57:49;;;;;;;;;;;;;;;;;;5092881;28;908;-64
2022/06/04 11:00:19;;;;;;;;;;;;;;;;;;5091442;28;1233;-64
2022/06/04 11:02:52;;;;;;;;;;;;;;;;;;5092548;28;955;-64
2022/06/04 11:05:27;;;;;;;;;;;;;;;;;;5092439;28;2099;-64
2022/06/04 11:07:57;;;;;;;;;;;;;;;;;;5092336;28;924;-64
2022/06/04 11:10:31;;;;;;;;;;;;;;;;;;5092759;28;1009;-64
2022/06/04 11:13:04;;;;;;;;;;;;;;;;;;5092082;28;1898;-63
2022/06/04 11:15:34;;;;;;;;;;;;;;;;;;5093426;28;844;-63
2022/06/04 11:18:03;;;;;;;;;;;;;;;;;;5092633;28;899;-62
2022/06/04 11:20:30;;;;;;;;;;;;;;;;;;5092930;28;809;-63
2022/06/04 11:23:12;;;;;;;;;;;;;;;;;;5092234;28;900;-63
2022/06/04 11:25:41;;;;;;;;;;;;;;;;;;5093300;28;895;-62
2022/06/04 11:28:09;;;;;;;;;;;;;;;;;;5092007;28;868;-63
2022/06/04 11:30:43;;;;;;;;;;;;;;;;;;5092394;28;935;-63
2022/06/04 11:33:31;;;;;;;;;;;;;;;;;;5090138;28;1914;-63
2022/06/04 11:36:09;;;;;;;;;;;;;;;;;;5091425;28;1082;-63
2022/06/04 11:38:53;;;;;;;;;;;;;;;;;;5090806;28;1214;-63
2022/06/04 11:41:28;;;;;;;;;;;;;;;;;;5092132;28;1069;-63
2022/06/04 11:44:08;;;;;;;;;;;;;;;;;;5091497;28;873;-63
2022/06/04 11:46:34;;;;;;;;;;;;;;;;;;5091942;28;813;-62
2022/06/04 11:49:12;;;;;;;;;;;;;;;;;;5091404;28;797;-63
2022/06/04 11:51:40;;;;;;;;;;;;;;;;;;5092072;28;845;-63
2022/06/04 11:54:21;;;;;;;;;;;;;;;;;;5090358;28;1976;-63
2022/06/04 11:57:13;;;;;;;;;;;;;;;;;;5091544;28;849;-62
2022/06/04 11:59:57;;;;;;;;;;;;;;;;;;5090386;28;1431;-63
2022/06/04 12:02:27;;;;;;;;;;;;;;;;;;5090133;28;1499;-63
2022/06/04 12:04:55;;;;;;;;;;;;;;;;;;5091648;28;951;-63
2022/06/04 12:07:31;;;;;;;;;;;;;;;;;;5089787;28;1163;-63
2022/06/04 12:09:56;;;;;;;;;;;;;;;;;;5090453;28;975;-63
2022/06/04 12:12:25;;;;;;;;;;;;;;;;;;5090593;28;1897;-63
2022/06/04 12:15:04;;;;;;;;;;;;;;;;;;5098324;28;1068;-64
2022/06/04 12:17:32;;;;;;;;;;;;;;;;;;5109330;28;1154;-64
2022/06/04 12:25:34;;;;;;;;;;;;;;;;;;5111468;28;642;-64
2022/06/04 12:28:00;;;;;;;;;;;;;;;;;;5111010;28;946;-64
2022/06/04 12:30:34;;;;;;;;;;;;;;;;;;5111206;28;903;-64
2022/06/04 12:33:03;;;;;;;;;;;;;;;;;;5111060;28;1914;-64
2022/06/04 12:35:29;;;;;;;;;;;;;;;;;;5093423;28;1182;-64
2022/06/04 12:37:56;;;;;;;;;;;;;;;;;;5111582;28;876;-64
2022/06/04 12:40:24;;;;;;;;;;;;;;;;;;5112472;28;947;-64
2022/06/04 12:42:59;;;;;;;;;;;;;;;;;;5114335;28;844;-64
2022/06/04 12:45:32;;;;;;;;;;;;;;;;;;5115472;28;868;-63
2022/06/04 12:47:58;;;;;;;;;;;;;;;;;;5113309;28;1286;-63
2022/06/04 12:50:28;;;;;;;;;;;;;;;;;;5115189;28;942;-63
2022/06/04 12:52:56;;;;;;;;;;;;;;;;;;5115095;28;1893;-64
2022/06/04 12:55:24;;;;;;;;;;;;;;;;;;5115183;28;848;-63
2022/06/04 12:57:51;;;;;;;;;;;;;;;;;;5115890;28;828;-63
2022/06/04 13:00:18;;;;;;;;;;;;;;;;;;5114158;28;1326;-64
2022/06/04 13:02:54;;;;;;;;;;;;;;;;;;5116533;28;773;-64
2022/06/04 13:05:21;;;;;;;;;;;;;;;;;;5113639;28;1229;-63
2022/06/04 13:07:46;;;;;;;;;;;;;;;;;;5115434;28;883;-64
2022/06/04 13:10:16;;;;;;;;;;;;;;;;;;5115391;28;899;-64
2022/06/04 13:13:12;;;;;;;;;;;;;;;;;;5114035;28;1897;-64
2022/06/04 13:15:55;;;;;;;;;;;;;;;;;;5100708;28;1227;-65
2022/06/04 13:18:28;;;;;;;;;;;;;;;;;;5114860;28;885;-63
2022/06/04 13:20:59;;;;;;;;;;;;;;;;;;5114714;28;944;-63
2022/06/04 13:23:39;;;;;;;;;;;;;;;;;;5113248;28;1324;-63
2022/06/04 13:26:19;;;;;;;;;;;;;;;;;;5114572;28;895;-64
2022/06/04 13:28:46;;;;;;;;;;;;;;;;;;5115095;28;827;-64
2022/06/04 13:31:25;;;;;;;;;;;;;;;;;;5114677;28;848;-64
2022/06/04 13:33:52;;;;;;;;;;;;;;;;;;5114875;28;1914;-64
2022/06/04 13:36:22;;;;;;;;;;;;;;;;;;5112908;28;1134;-64
2022/06/04 13:38:48;;;;;;;;;;;;;;;;;;5115071;28;813;-64
2022/06/04 13:41:13;;;;;;;;;;;;;;;;;;5114127;28;978;-63
2022/06/04 13:43:40;;;;;;;;;;;;;;;;;;5114695;28;982;-63
2022/06/04 13:46:16;;;;;;;;;;;;;;;;;;5114648;28;801;-63
2022/06/04 13:48:50;;;;;;;;;;;;;;;;;;5114728;28;1036;-63
2022/06/04 13:51:18;;;;;;;;;;;;;;;;;;5115946;28;911;-63
2022/06/04 13:53:53;;;;;;;;;;;;;;;;;;5116204;28;1874;-64
2022/06/04 13:56:19;;;;;;;;;;;;;;;;;;5116236;28;879;-63
2022/06/04 13:58:45;;;;;;;;;;;;;;;;;;5116407;28;793;-63
2022/06/04 14:01:12;;;;;;;;;;;;;;;;;;5114355;28;1218;-63
2022/06/04 14:03:46;;;;;;;;;;;;;;;;;;5116308;28;859;-64
2022/06/04 14:06:11;;;;;;;;;;;;;;;;;;5109909;27;1122;-63
2022/06/04 14:09:02;;;;;;;;;;;;;;;;;;5095117;28;841;-63
2022/06/04 14:11:27;;;;;;;;;;;;;;;;;;5094445;28;1210;-63
2022/06/04 14:13:55;;;;;;;;;;;;;;;;;;5094662;28;1889;-64
2022/06/04 14:16:39;;;;;;;;;;;;;;;;;;5093552;28;840;-64
2022/06/04 14:19:20;;;;;;;;;;;;;;;;;;5093414;28;1091;-65
2022/06/04 14:21:53;;;;;;;;;;;;;;;;;;5092374;28;999;-64
2022/06/04 14:24:30;;;;;;;;;;;;;;;;;;5093134;28;1151;-64
2022/06/04 14:27:02;;;;;;;;;;;;;;;;;;5092607;28;1288;-64
2022/06/04 14:29:27;;;;;;;;;;;;;;;;;;5092482;28;1202;-66
2022/06/04 14:31:58;;;;;;;;;;;;;;;;;;5093456;28;1211;-64
2022/06/04 14:34:27;;;;;;;;;;;;;;;;;;5093617;28;931;-64
2022/06/04 14:36:56;;;;;;;;;;;;;;;;;;5093156;28;723;-64
2022/06/04 14:39:23;;;;;;;;;;;;;;;;;;5091839;28;1137;-64
2022/06/04 14:41:55;;;;;;;;;;;;;;;;;;5092994;28;1238;-64
2022/06/04 14:44:40;;;;;;;;;;;;;;;;;;5095142;28;1237;-64
2022/06/04 14:47:14;;;;;;;;;;;;;;;;;;5091449;28;1360;-64
2022/06/04 14:49:46;;;;;;;;;;;;;;;;;;5113090;28;1218;-64
2022/06/04 14:52:20;;;;;;;;;;;;;;;;;;5093517;28;1959;-64
2022/06/04 14:54:47;;;;;;;;;;;;;;;;;;5093132;28;912;-64
2022/06/04 14:57:29;;;;;;;;;;;;;;;;;;5091791;28;1579;-64
2022/06/04 15:00:00;;;;;;;;;;;;;;;;;;5093144;28;903;-65
2022/06/04 15:02:38;;;;;;;;;;;;;;;;;;5092384;28;931;-64
2022/06/04 15:05:10;;;;;;;;;;;;;;;;;;5093088;28;841;-64
2022/06/04 15:07:48;;;;;;;;;;;;;;;;;;5092715;28;955;-72
2022/06/04 15:10:24;;;;;;;;;;;;;;;;;;5092405;28;984;-72
2022/06/04 15:12:49;;;;;;;;;;;;;;;;;;5090606;28;1914;-72
2022/06/04 15:15:20;;;;;;;;;;;;;;;;;;5091148;28;947;-73
2022/06/04 15:17:58;;;;;;;;;;;;;;;;;;5090743;28;812;-72
2022/06/04 15:20:32;;;;;;;;;;;;;;;;;;5090084;28;1308;-73
2022/06/04 15:23:16;;;;;;;;;;;;;;;;;;5091593;28;962;-64
2022/06/04 15:25:59;;;;;;;;;;;;;;;;;;5091524;28;959;-64
2022/06/04 15:34:11;;;;;;;;;;;;;;;;;;5091765;28;1910;-64
2022/06/04 15:36:41;;;;;;;;;;;;;;;;;;5090317;28;805;-64
2022/06/04 15:39:10;;;;;;;;;;;;;;;;;;5091442;28;840;-65
2022/06/04 15:41:35;;;;;;;;;;;;;;;;;;5091621;28;988;-64
2022/06/04 15:44:03;;;;;;;;;;;;;;;;;;5091257;28;1046;-64
2022/06/04 15:46:49;;;;;;;;;;;;;;;;;;5091234;28;821;-64
2022/06/04 15:49:16;;;;;;;;;;;;;;;;;;5090978;28;837;-64
2022/06/04 15:57:31;;;;;;;;;;;;;;;;;;5091182;28;773;-64
2022/06/04 16:00:25;;;;;;;;;;;;;;;;;;5091100;28;892;-64
2022/06/04 16:02:52;;;;;;;;;;;;;;;;;;5076368;28;1321;-64
2022/06/04 16:05:28;;;;;;;;;;;;;;;;;;5090894;28;918;-64
2022/06/04 16:07:56;;;;;;;;;;;;;;;;;;5091068;28;848;-64
2022/06/04 16:10:25;;;;;;;;;;;;;;;;;;5091369;28;971;-64
2022/06/04 16:13:14;;;;;;;;;;;;;;;;;;5090752;28;1902;-64
2022/06/04 16:16:01;;;;;;;;;;;;;;;;;;5091165;28;903;-64
2022/06/04 16:18:29;;;;;;;;;;;;;;;;;;5091820;28;933;-64
2022/06/04 16:21:02;;;;;;;;;;;;;;;;;;5089735;28;1266;-64
2022/06/04 16:23:33;;;;;;;;;;;;;;;;;;5091803;28;1062;-64
2022/06/04 16:26:21;;;;;;;;;;;;;;;;;;5091345;28;880;-64
2022/06/04 16:28:46;;;;;;;;;;;;;;;;;;5085169;28;1309;-64
2022/06/04 16:31:14;;;;;;;;;;;;;;;;;;5091541;28;1042;-65
2022/06/04 16:33:52;;;;;;;;;;;;;;;;;;5091300;28;1909;-64
2022/06/04 16:36:17;;;;;;;;;;;;;;;;;;5091468;28;840;-64
2022/06/04 16:38:47;;;;;;;;;;;;;;;;;;5093298;28;1139;-63
2022/06/04 16:43:57;;;;;;;;;;;;;;;;;;5091335;28;642;-62
2022/06/04 16:46:25;;;;;;;;;;;;;;;;;;5091350;28;896;-62
2022/06/04 16:49:45;;;;;;;;;;;;;;;;;;5091469;28;1030;-63
2022/06/04 16:51:50;;;;;;;;;;;;;;;;;;5091142;28;1010;-63
2022/06/04 16:54:15;;;;;;;;;;;;;;;;;;5091034;28;1910;-64
2022/06/04 16:56:41;;;;;;;;;;;;;;;;;;5091104;28;814;-64
2022/06/04 16:59:10;;;;;;;;;;;;;;;;;;5089573;28;1210;-64
2022/06/04 17:01:36;;;;;;;;;;;;;;;;;;5090857;28;837;-64
2022/06/04 17:04:04;;;;;;;;;;;;;;;;;;5090883;28;876;-64
2022/06/04 17:06:34;;;;;;;;;;;;;;;;;;5090744;28;857;-65
2022/06/04 17:09:09;;;;;;;;;;;;;;;;;;5089143;28;915;-64
2022/06/04 17:11:37;;;;;;;;;;;;;;;;;;5090821;28;1046;-64
2022/06/04 17:14:02;;;;;;;;;;;;;;;;;;5090396;28;1977;-64
2022/06/04 17:16:33;;;;;;;;;;;;;;;;;;5090477;28;825;-62
2022/06/04 17:18:58;;;;;;;;;;;;;;;;;;5090348;28;908;-64
2022/06/04 17:21:42;;;;;;;;;;;;;;;;;;5090825;28;892;-63
2022/06/04 17:24:26;;;;;;;;;;;;;;;;;;5090463;28;979;-63
2022/06/04 17:27:10;;;;;;;;;;;;;;;;;;5092286;28;848;-63
2022/06/04 17:29:41;;;;;;;;;;;;;;;;;;5094719;28;834;-72
2022/06/04 17:32:13;;;;;;;;;;;;;;;;;;5093050;28;1967;-72
2022/06/04 17:35:08;;;;;;;;;;;;;;;;;;5094936;28;848;-72
2022/06/04 17:37:57;;;;;;;;;;;;;;;;;;5056266;28;1107;-70
2022/06/04 17:40:28;;;;;;;;;;;;;;;;;;5089128;28;1323;-72
2022/06/04 17:42:54;;;;;;;;;;;;;;;;;;5094643;28;816;-63
2022/06/04 17:45:20;;;;;;;;;;;;;;;;;;5095240;28;876;-63
2022/06/04 17:47:45;;;;;;;;;;;;;;;;;;5095034;28;896;-63
2022/06/04 17:50:11;;;;;;;;;;;;;;;;;;5095414;28;1038;-63
2022/06/04 17:52:36;;;;;;;;;;;;;;;;;;5093930;28;1951;-63
2022/06/04 17:55:01;;;;;;;;;;;;;;;;;;5094085;28;867;-63
2022/06/04 17:57:27;;;;;;;;;;;;;;;;;;5093215;28;971;-63
2022/06/04 17:59:56;;;;;;;;;;;;;;;;;;5094097;28;883;-64
2022/06/04 18:02:21;;;;;;;;;;;;;;;;;;5094382;28;1043;-63
2022/06/04 18:04:46;;;;;;;;;;;;;;;;;;5094189;28;908;-63
2022/06/04 18:07:12;;;;;;;;;;;;;;;;;;5094459;28;881;-63
2022/06/04 18:09:37;;;;;;;;;;;;;;;;;;5094912;28;967;-63
2022/06/04 18:12:03;;;;;;;;;;;;;;;;;;5094692;28;1037;-63